Аэропорт: Омск-Центральный. Омск

ICAO: UNOO

METAR:
2018/11/19 10:00
UNOO 191000Z 17004MPS 8000 BKN017 M08/M09 Q1028 R25/810550 NOSIG RMK QFE762
METAR:
2018/11/19 09:21
TAF UNOO 190750Z 1909/2009 19003G09MPS 5000 -SN BR BKN010 
      TEMPO 1912/2006 2100 -SN BKN007